sensor_id;sensor_type;location;lat;lon;timestamp;P1;durP1;ratioP1;P2;durP2;ratioP2
76852;SDS011;65825;52.232;10.566;2023-05-07T00:00:03;25.55;;;14.20;;
76852;SDS011;65825;52.232;10.566;2023-05-07T00:02:32;29.83;;;14.25;;
76852;SDS011;65825;52.232;10.566;2023-05-07T00:04:57;28.53;;;14.70;;
76852;SDS011;65825;52.232;10.566;2023-05-07T00:07:23;24.77;;;13.73;;
76852;SDS011;65825;52.232;10.566;2023-05-07T00:09:49;26.30;;;13.38;;
76852;SDS011;65825;52.232;10.566;2023-05-07T00:12:14;25.95;;;12.55;;
76852;SDS011;65825;52.232;10.566;2023-05-07T00:14:39;24.73;;;12.85;;
76852;SDS011;65825;52.232;10.566;2023-05-07T00:17:05;22.45;;;12.00;;
76852;SDS011;65825;52.232;10.566;2023-05-07T00:19:30;18.98;;;10.48;;
76852;SDS011;65825;52.232;10.566;2023-05-07T00:21:56;20.98;;;10.82;;
76852;SDS011;65825;52.232;10.566;2023-05-07T00:24:23;19.33;;;10.00;;
76852;SDS011;65825;52.232;10.566;2023-05-07T00:26:48;17.73;;;9.35;;
76852;SDS011;65825;52.232;10.566;2023-05-07T00:29:14;19.03;;;9.47;;
76852;SDS011;65825;52.232;10.566;2023-05-07T00:31:39;18.83;;;9.50;;
76852;SDS011;65825;52.232;10.566;2023-05-07T00:34:04;17.63;;;9.48;;
76852;SDS011;65825;52.232;10.566;2023-05-07T00:36:30;19.10;;;9.52;;
76852;SDS011;65825;52.232;10.566;2023-05-07T00:38:56;19.98;;;9.95;;
76852;SDS011;65825;52.232;10.566;2023-05-07T00:41:22;17.02;;;8.57;;
76852;SDS011;65825;52.232;10.566;2023-05-07T00:43:47;14.85;;;7.75;;
76852;SDS011;65825;52.232;10.566;2023-05-07T00:46:13;15.93;;;8.55;;
76852;SDS011;65825;52.232;10.566;2023-05-07T00:48:40;14.85;;;8.65;;
76852;SDS011;65825;52.232;10.566;2023-05-07T00:51:06;15.95;;;8.27;;
76852;SDS011;65825;52.232;10.566;2023-05-07T00:53:32;13.75;;;8.02;;
76852;SDS011;65825;52.232;10.566;2023-05-07T00:55:57;15.57;;;8.77;;
76852;SDS011;65825;52.232;10.566;2023-05-07T00:58:22;16.67;;;8.77;;
76852;SDS011;65825;52.232;10.566;2023-05-07T01:00:51;18.27;;;9.65;;
76852;SDS011;65825;52.232;10.566;2023-05-07T01:03:16;18.70;;;9.47;;
76852;SDS011;65825;52.232;10.566;2023-05-07T01:05:42;18.02;;;9.00;;
76852;SDS011;65825;52.232;10.566;2023-05-07T01:08:09;17.25;;;9.23;;
76852;SDS011;65825;52.232;10.566;2023-05-07T01:10:35;16.17;;;8.25;;
76852;SDS011;65825;52.232;10.566;2023-05-07T01:13:00;16.60;;;8.50;;
76852;SDS011;65825;52.232;10.566;2023-05-07T01:15:26;13.98;;;7.50;;
76852;SDS011;65825;52.232;10.566;2023-05-07T01:17:52;13.68;;;7.53;;
76852;SDS011;65825;52.232;10.566;2023-05-07T01:20:18;12.93;;;7.28;;
76852;SDS011;65825;52.232;10.566;2023-05-07T01:22:44;13.73;;;7.95;;
76852;SDS011;65825;52.232;10.566;2023-05-07T01:25:10;12.27;;;7.53;;
76852;SDS011;65825;52.232;10.566;2023-05-07T01:27:35;12.95;;;7.55;;
76852;SDS011;65825;52.232;10.566;2023-05-07T01:30:04;17.35;;;8.30;;
76852;SDS011;65825;52.232;10.566;2023-05-07T01:35:01;16.95;;;8.38;;
76852;SDS011;65825;52.232;10.566;2023-05-07T01:37:28;15.63;;;7.93;;
76852;SDS011;65825;52.232;10.566;2023-05-07T01:39:54;14.70;;;7.38;;
76852;SDS011;65825;52.232;10.566;2023-05-07T01:42:20;14.27;;;8.02;;
76852;SDS011;65825;52.232;10.566;2023-05-07T01:47:12;15.83;;;7.87;;
76852;SDS011;65825;52.232;10.566;2023-05-07T01:49:38;15.35;;;7.78;;
76852;SDS011;65825;52.232;10.566;2023-05-07T01:52:04;14.63;;;7.55;;
76852;SDS011;65825;52.232;10.566;2023-05-07T01:54:29;14.60;;;8.27;;
76852;SDS011;65825;52.232;10.566;2023-05-07T01:56:58;12.88;;;7.65;;
76852;SDS011;65825;52.232;10.566;2023-05-07T01:59:23;14.02;;;7.07;;
76852;SDS011;65825;52.232;10.566;2023-05-07T02:01:49;14.82;;;8.05;;
76852;SDS011;65825;52.232;10.566;2023-05-07T02:04:14;15.05;;;8.15;;
76852;SDS011;65825;52.232;10.566;2023-05-07T02:06:39;14.02;;;7.38;;
76852;SDS011;65825;52.232;10.566;2023-05-07T02:09:04;15.23;;;7.17;;
76852;SDS011;65825;52.232;10.566;2023-05-07T02:11:30;13.63;;;6.80;;
76852;SDS011;65825;52.232;10.566;2023-05-07T02:13:55;15.57;;;7.57;;
76852;SDS011;65825;52.232;10.566;2023-05-07T02:16:20;14.17;;;7.53;;
76852;SDS011;65825;52.232;10.566;2023-05-07T02:18:46;13.65;;;7.70;;
76852;SDS011;65825;52.232;10.566;2023-05-07T02:21:12;12.77;;;6.43;;
76852;SDS011;65825;52.232;10.566;2023-05-07T02:23:37;13.67;;;7.30;;
76852;SDS011;65825;52.232;10.566;2023-05-07T02:26:03;11.85;;;6.72;;
76852;SDS011;65825;52.232;10.566;2023-05-07T02:28:29;12.88;;;6.85;;
76852;SDS011;65825;52.232;10.566;2023-05-07T02:30:54;12.80;;;6.72;;
76852;SDS011;65825;52.232;10.566;2023-05-07T02:33:20;12.73;;;7.40;;
76852;SDS011;65825;52.232;10.566;2023-05-07T02:35:45;13.20;;;7.07;;
76852;SDS011;65825;52.232;10.566;2023-05-07T02:38:10;10.63;;;6.38;;
76852;SDS011;65825;52.232;10.566;2023-05-07T02:40:36;13.90;;;7.38;;
76852;SDS011;65825;52.232;10.566;2023-05-07T02:43:04;13.07;;;7.38;;
76852;SDS011;65825;52.232;10.566;2023-05-07T02:45:30;13.18;;;6.95;;
76852;SDS011;65825;52.232;10.566;2023-05-07T02:47:56;13.50;;;7.00;;
76852;SDS011;65825;52.232;10.566;2023-05-07T02:50:21;14.67;;;7.57;;
76852;SDS011;65825;52.232;10.566;2023-05-07T02:52:47;12.63;;;7.20;;
76852;SDS011;65825;52.232;10.566;2023-05-07T02:55:12;12.85;;;7.35;;
76852;SDS011;65825;52.232;10.566;2023-05-07T02:57:37;14.57;;;8.07;;
76852;SDS011;65825;52.232;10.566;2023-05-07T03:00:16;17.20;;;7.97;;
76852;SDS011;65825;52.232;10.566;2023-05-07T03:02:42;13.45;;;7.90;;
76852;SDS011;65825;52.232;10.566;2023-05-07T03:05:08;14.20;;;7.80;;
76852;SDS011;65825;52.232;10.566;2023-05-07T03:07:34;15.82;;;8.30;;
76852;SDS011;65825;52.232;10.566;2023-05-07T03:10:00;16.25;;;8.30;;
76852;SDS011;65825;52.232;10.566;2023-05-07T03:12:25;16.47;;;9.17;;
76852;SDS011;65825;52.232;10.566;2023-05-07T03:14:51;14.80;;;8.40;;
76852;SDS011;65825;52.232;10.566;2023-05-07T03:17:16;16.45;;;8.65;;
76852;SDS011;65825;52.232;10.566;2023-05-07T03:19:41;15.13;;;9.03;;
76852;SDS011;65825;52.232;10.566;2023-05-07T03:22:06;15.52;;;8.40;;
76852;SDS011;65825;52.232;10.566;2023-05-07T03:24:32;15.83;;;8.40;;
76852;SDS011;65825;52.232;10.566;2023-05-07T03:26:57;14.57;;;7.95;;
76852;SDS011;65825;52.232;10.566;2023-05-07T03:29:23;12.63;;;7.33;;
76852;SDS011;65825;52.232;10.566;2023-05-07T03:31:48;15.77;;;8.20;;
76852;SDS011;65825;52.232;10.566;2023-05-07T03:34:13;13.45;;;7.55;;
76852;SDS011;65825;52.232;10.566;2023-05-07T03:36:39;14.73;;;8.20;;
76852;SDS011;65825;52.232;10.566;2023-05-07T03:39:04;12.80;;;7.25;;
76852;SDS011;65825;52.232;10.566;2023-05-07T03:41:29;11.60;;;7.00;;
76852;SDS011;65825;52.232;10.566;2023-05-07T03:43:55;15.13;;;6.57;;
76852;SDS011;65825;52.232;10.566;2023-05-07T03:46:20;10.98;;;6.35;;
76852;SDS011;65825;52.232;10.566;2023-05-07T03:48:45;11.88;;;6.22;;
76852;SDS011;65825;52.232;10.566;2023-05-07T03:51:11;11.00;;;6.27;;
76852;SDS011;65825;52.232;10.566;2023-05-07T03:53:36;11.93;;;6.60;;
76852;SDS011;65825;52.232;10.566;2023-05-07T03:56:01;12.13;;;7.15;;
76852;SDS011;65825;52.232;10.566;2023-05-07T03:58:27;11.95;;;6.60;;
76852;SDS011;65825;52.232;10.566;2023-05-07T04:00:52;11.10;;;6.00;;
76852;SDS011;65825;52.232;10.566;2023-05-07T04:03:17;10.83;;;6.77;;
76852;SDS011;65825;52.232;10.566;2023-05-07T04:05:42;11.47;;;6.50;;
76852;SDS011;65825;52.232;10.566;2023-05-07T04:08:08;11.00;;;6.27;;
76852;SDS011;65825;52.232;10.566;2023-05-07T04:10:33;11.13;;;6.93;;
76852;SDS011;65825;52.232;10.566;2023-05-07T04:12:58;11.60;;;6.80;;
76852;SDS011;65825;52.232;10.566;2023-05-07T04:15:23;12.37;;;6.87;;
76852;SDS011;65825;52.232;10.566;2023-05-07T04:17:49;11.73;;;7.28;;
76852;SDS011;65825;52.232;10.566;2023-05-07T04:20:15;12.63;;;7.28;;
76852;SDS011;65825;52.232;10.566;2023-05-07T04:22:41;12.68;;;7.95;;
76852;SDS011;65825;52.232;10.566;2023-05-07T04:25:07;11.70;;;7.05;;
76852;SDS011;65825;52.232;10.566;2023-05-07T04:27:34;12.13;;;6.78;;
76852;SDS011;65825;52.232;10.566;2023-05-07T04:29:59;11.65;;;6.95;;
76852;SDS011;65825;52.232;10.566;2023-05-07T04:32:25;12.88;;;7.55;;
76852;SDS011;65825;52.232;10.566;2023-05-07T04:34:51;11.13;;;6.53;;
76852;SDS011;65825;52.232;10.566;2023-05-07T04:37:16;12.40;;;7.43;;
76852;SDS011;65825;52.232;10.566;2023-05-07T04:39:41;11.55;;;6.78;;
76852;SDS011;65825;52.232;10.566;2023-05-07T04:42:07;14.02;;;8.27;;
76852;SDS011;65825;52.232;10.566;2023-05-07T04:44:33;11.30;;;6.82;;
76852;SDS011;65825;52.232;10.566;2023-05-07T04:46:59;13.63;;;7.75;;
76852;SDS011;65825;52.232;10.566;2023-05-07T04:49:24;12.90;;;7.32;;
76852;SDS011;65825;52.232;10.566;2023-05-07T04:51:50;10.60;;;6.93;;
76852;SDS011;65825;52.232;10.566;2023-05-07T04:54:15;12.93;;;7.40;;
76852;SDS011;65825;52.232;10.566;2023-05-07T04:56:41;10.37;;;5.93;;
76852;SDS011;65825;52.232;10.566;2023-05-07T04:59:06;10.80;;;6.97;;
76852;SDS011;65825;52.232;10.566;2023-05-07T05:01:31;13.43;;;7.22;;
76852;SDS011;65825;52.232;10.566;2023-05-07T05:03:57;11.80;;;6.75;;
76852;SDS011;65825;52.232;10.566;2023-05-07T05:06:22;10.32;;;6.28;;
76852;SDS011;65825;52.232;10.566;2023-05-07T05:08:47;12.00;;;6.53;;
76852;SDS011;65825;52.232;10.566;2023-05-07T05:11:13;13.55;;;7.05;;
76852;SDS011;65825;52.232;10.566;2023-05-07T05:13:38;11.55;;;7.18;;
76852;SDS011;65825;52.232;10.566;2023-05-07T05:16:03;12.97;;;7.67;;
76852;SDS011;65825;52.232;10.566;2023-05-07T05:18:29;13.32;;;7.78;;
76852;SDS011;65825;52.232;10.566;2023-05-07T05:20:54;11.60;;;7.07;;
76852;SDS011;65825;52.232;10.566;2023-05-07T05:23:20;13.48;;;7.70;;
76852;SDS011;65825;52.232;10.566;2023-05-07T05:25:45;13.00;;;7.80;;
76852;SDS011;65825;52.232;10.566;2023-05-07T05:28:10;13.85;;;7.78;;
76852;SDS011;65825;52.232;10.566;2023-05-07T05:30:36;15.68;;;9.57;;
76852;SDS011;65825;52.232;10.566;2023-05-07T05:33:01;14.73;;;8.65;;
76852;SDS011;65825;52.232;10.566;2023-05-07T05:35:26;13.53;;;8.60;;
76852;SDS011;65825;52.232;10.566;2023-05-07T05:37:52;14.20;;;8.93;;
76852;SDS011;65825;52.232;10.566;2023-05-07T05:40:17;17.23;;;9.17;;
76852;SDS011;65825;52.232;10.566;2023-05-07T05:42:42;17.40;;;9.17;;
76852;SDS011;65825;52.232;10.566;2023-05-07T05:45:07;15.40;;;9.23;;
76852;SDS011;65825;52.232;10.566;2023-05-07T05:47:33;15.43;;;9.60;;
76852;SDS011;65825;52.232;10.566;2023-05-07T05:49:58;16.30;;;10.10;;
76852;SDS011;65825;52.232;10.566;2023-05-07T05:52:24;17.90;;;10.37;;
76852;SDS011;65825;52.232;10.566;2023-05-07T05:54:49;16.77;;;10.40;;
76852;SDS011;65825;52.232;10.566;2023-05-07T05:57:15;16.02;;;9.73;;
76852;SDS011;65825;52.232;10.566;2023-05-07T05:59:40;14.07;;;9.05;;
76852;SDS011;65825;52.232;10.566;2023-05-07T06:02:06;15.47;;;9.13;;
76852;SDS011;65825;52.232;10.566;2023-05-07T06:04:32;14.80;;;9.02;;
76852;SDS011;65825;52.232;10.566;2023-05-07T06:06:57;17.30;;;8.82;;
76852;SDS011;65825;52.232;10.566;2023-05-07T06:09:22;13.90;;;8.53;;
76852;SDS011;65825;52.232;10.566;2023-05-07T06:11:47;11.60;;;8.07;;
76852;SDS011;65825;52.232;10.566;2023-05-07T06:14:13;11.83;;;7.27;;
76852;SDS011;65825;52.232;10.566;2023-05-07T06:16:38;10.23;;;7.03;;
76852;SDS011;65825;52.232;10.566;2023-05-07T06:19:03;9.73;;;6.63;;
76852;SDS011;65825;52.232;10.566;2023-05-07T06:21:28;10.82;;;7.05;;
76852;SDS011;65825;52.232;10.566;2023-05-07T06:23:54;10.10;;;6.70;;
76852;SDS011;65825;52.232;10.566;2023-05-07T06:26:19;10.57;;;6.28;;
76852;SDS011;65825;52.232;10.566;2023-05-07T06:28:45;10.27;;;6.45;;
76852;SDS011;65825;52.232;10.566;2023-05-07T06:31:11;10.30;;;6.57;;
76852;SDS011;65825;52.232;10.566;2023-05-07T06:33:41;9.50;;;6.30;;
76852;SDS011;65825;52.232;10.566;2023-05-07T06:36:06;9.85;;;6.40;;
76852;SDS011;65825;52.232;10.566;2023-05-07T06:38:32;10.40;;;6.47;;
76852;SDS011;65825;52.232;10.566;2023-05-07T06:40:57;9.67;;;5.80;;
76852;SDS011;65825;52.232;10.566;2023-05-07T06:43:22;8.55;;;5.60;;
76852;SDS011;65825;52.232;10.566;2023-05-07T06:45:47;7.90;;;5.30;;
76852;SDS011;65825;52.232;10.566;2023-05-07T06:48:13;9.07;;;5.65;;
76852;SDS011;65825;52.232;10.566;2023-05-07T06:50:38;9.37;;;5.87;;
76852;SDS011;65825;52.232;10.566;2023-05-07T06:53:03;8.13;;;5.33;;
76852;SDS011;65825;52.232;10.566;2023-05-07T06:55:28;8.47;;;5.70;;
76852;SDS011;65825;52.232;10.566;2023-05-07T06:57:54;8.10;;;5.43;;
76852;SDS011;65825;52.232;10.566;2023-05-07T07:00:19;9.23;;;6.00;;
76852;SDS011;65825;52.232;10.566;2023-05-07T07:02:45;9.27;;;6.07;;
76852;SDS011;65825;52.232;10.566;2023-05-07T07:05:10;9.20;;;5.93;;
76852;SDS011;65825;52.232;10.566;2023-05-07T07:07:35;9.17;;;5.80;;
76852;SDS011;65825;52.232;10.566;2023-05-07T07:10:01;9.50;;;5.80;;
76852;SDS011;65825;52.232;10.566;2023-05-07T07:12:26;13.13;;;6.07;;
76852;SDS011;65825;52.232;10.566;2023-05-07T07:14:53;9.80;;;6.00;;
76852;SDS011;65825;52.232;10.566;2023-05-07T07:17:19;10.77;;;6.03;;
76852;SDS011;65825;52.232;10.566;2023-05-07T07:19:44;12.60;;;7.63;;
76852;SDS011;65825;52.232;10.566;2023-05-07T07:22:09;10.87;;;6.87;;
76852;SDS011;65825;52.232;10.566;2023-05-07T07:24:35;12.18;;;6.88;;
76852;SDS011;65825;52.232;10.566;2023-05-07T07:27:00;12.00;;;6.87;;
76852;SDS011;65825;52.232;10.566;2023-05-07T07:29:25;10.80;;;6.87;;
76852;SDS011;65825;52.232;10.566;2023-05-07T07:31:51;12.15;;;7.18;;
76852;SDS011;65825;52.232;10.566;2023-05-07T07:34:16;12.60;;;7.47;;
76852;SDS011;65825;52.232;10.566;2023-05-07T07:36:42;12.37;;;7.43;;
76852;SDS011;65825;52.232;10.566;2023-05-07T07:39:07;12.53;;;7.37;;
76852;SDS011;65825;52.232;10.566;2023-05-07T07:41:32;11.90;;;7.00;;
76852;SDS011;65825;52.232;10.566;2023-05-07T07:43:57;10.90;;;6.90;;
76852;SDS011;65825;52.232;10.566;2023-05-07T07:46:23;11.50;;;6.65;;
76852;SDS011;65825;52.232;10.566;2023-05-07T07:48:48;12.30;;;6.75;;
76852;SDS011;65825;52.232;10.566;2023-05-07T07:51:14;12.73;;;7.50;;
76852;SDS011;65825;52.232;10.566;2023-05-07T07:53:39;12.68;;;7.35;;
76852;SDS011;65825;52.232;10.566;2023-05-07T07:56:04;11.55;;;6.93;;
76852;SDS011;65825;52.232;10.566;2023-05-07T07:58:30;13.20;;;7.35;;
76852;SDS011;65825;52.232;10.566;2023-05-07T08:00:55;12.05;;;7.05;;
76852;SDS011;65825;52.232;10.566;2023-05-07T08:03:21;11.63;;;7.57;;
76852;SDS011;65825;52.232;10.566;2023-05-07T08:05:46;13.30;;;7.90;;
76852;SDS011;65825;52.232;10.566;2023-05-07T08:08:11;12.70;;;8.30;;
76852;SDS011;65825;52.232;10.566;2023-05-07T08:10:37;12.20;;;7.90;;
76852;SDS011;65825;52.232;10.566;2023-05-07T08:13:04;13.75;;;8.05;;
76852;SDS011;65825;52.232;10.566;2023-05-07T08:15:30;13.13;;;8.35;;
76852;SDS011;65825;52.232;10.566;2023-05-07T08:17:55;14.32;;;9.00;;
76852;SDS011;65825;52.232;10.566;2023-05-07T08:20:22;14.85;;;9.65;;
76852;SDS011;65825;52.232;10.566;2023-05-07T08:22:47;15.15;;;9.43;;
76852;SDS011;65825;52.232;10.566;2023-05-07T08:25:13;15.33;;;9.40;;
76852;SDS011;65825;52.232;10.566;2023-05-07T08:27:38;15.13;;;9.50;;
76852;SDS011;65825;52.232;10.566;2023-05-07T08:30:03;15.60;;;9.30;;
76852;SDS011;65825;52.232;10.566;2023-05-07T08:32:29;16.75;;;10.52;;
76852;SDS011;65825;52.232;10.566;2023-05-07T08:34:54;14.40;;;9.30;;
76852;SDS011;65825;52.232;10.566;2023-05-07T08:37:20;17.17;;;10.30;;
76852;SDS011;65825;52.232;10.566;2023-05-07T08:39:45;15.45;;;9.27;;
76852;SDS011;65825;52.232;10.566;2023-05-07T08:42:11;15.23;;;9.23;;
76852;SDS011;65825;52.232;10.566;2023-05-07T08:44:40;15.75;;;8.77;;
76852;SDS011;65825;52.232;10.566;2023-05-07T08:47:08;13.60;;;8.77;;
76852;SDS011;65825;52.232;10.566;2023-05-07T08:52:00;17.33;;;10.45;;
76852;SDS011;65825;52.232;10.566;2023-05-07T08:54:26;13.52;;;9.00;;
76852;SDS011;65825;52.232;10.566;2023-05-07T08:59:17;13.70;;;7.93;;
76852;SDS011;65825;52.232;10.566;2023-05-07T09:01:43;12.73;;;8.07;;
76852;SDS011;65825;52.232;10.566;2023-05-07T09:04:08;10.73;;;7.20;;
76852;SDS011;65825;52.232;10.566;2023-05-07T09:06:34;13.10;;;8.05;;
76852;SDS011;65825;52.232;10.566;2023-05-07T09:09:00;12.65;;;7.47;;
76852;SDS011;65825;52.232;10.566;2023-05-07T09:11:26;10.88;;;7.07;;
76852;SDS011;65825;52.232;10.566;2023-05-07T09:13:56;13.60;;;7.68;;
76852;SDS011;65825;52.232;10.566;2023-05-07T09:16:23;11.65;;;7.47;;
76852;SDS011;65825;52.232;10.566;2023-05-07T09:18:50;10.68;;;6.82;;
76852;SDS011;65825;52.232;10.566;2023-05-07T09:21:18;12.32;;;7.75;;
76852;SDS011;65825;52.232;10.566;2023-05-07T09:26:09;11.10;;;6.68;;
76852;SDS011;65825;52.232;10.566;2023-05-07T09:28:39;12.95;;;8.60;;
76852;SDS011;65825;52.232;10.566;2023-05-07T09:31:06;9.82;;;7.18;;
76852;SDS011;65825;52.232;10.566;2023-05-07T09:33:32;10.02;;;6.82;;
76852;SDS011;65825;52.232;10.566;2023-05-07T09:35:57;12.90;;;6.93;;
76852;SDS011;65825;52.232;10.566;2023-05-07T09:38:22;10.43;;;6.43;;
76852;SDS011;65825;52.232;10.566;2023-05-07T09:40:52;10.10;;;6.80;;
76852;SDS011;65825;52.232;10.566;2023-05-07T09:43:37;11.48;;;6.82;;
76852;SDS011;65825;52.232;10.566;2023-05-07T09:46:07;10.18;;;7.13;;
76852;SDS011;65825;52.232;10.566;2023-05-07T09:48:40;11.70;;;6.82;;
76852;SDS011;65825;52.232;10.566;2023-05-07T09:51:09;10.00;;;6.72;;
76852;SDS011;65825;52.232;10.566;2023-05-07T09:53:47;9.80;;;6.63;;
76852;SDS011;65825;52.232;10.566;2023-05-07T09:56:13;11.23;;;6.38;;
76852;SDS011;65825;52.232;10.566;2023-05-07T09:58:40;9.88;;;6.40;;
76852;SDS011;65825;52.232;10.566;2023-05-07T10:01:06;11.93;;;6.05;;
76852;SDS011;65825;52.232;10.566;2023-05-07T10:03:32;9.13;;;5.75;;
76852;SDS011;65825;52.232;10.566;2023-05-07T10:05:58;9.13;;;5.90;;
76852;SDS011;65825;52.232;10.566;2023-05-07T10:08:24;8.20;;;5.60;;
76852;SDS011;65825;52.232;10.566;2023-05-07T10:10:49;8.55;;;5.82;;
76852;SDS011;65825;52.232;10.566;2023-05-07T10:13:15;7.88;;;5.88;;
76852;SDS011;65825;52.232;10.566;2023-05-07T10:15:42;9.05;;;5.88;;
76852;SDS011;65825;52.232;10.566;2023-05-07T10:18:07;8.85;;;5.95;;
76852;SDS011;65825;52.232;10.566;2023-05-07T10:20:33;10.70;;;6.13;;
76852;SDS011;65825;52.232;10.566;2023-05-07T10:23:01;10.60;;;6.15;;
76852;SDS011;65825;52.232;10.566;2023-05-07T10:25:30;8.48;;;5.97;;
76852;SDS011;65825;52.232;10.566;2023-05-07T10:28:01;8.73;;;6.05;;
76852;SDS011;65825;52.232;10.566;2023-05-07T10:33:13;9.32;;;6.72;;
76852;SDS011;65825;52.232;10.566;2023-05-07T10:35:43;8.90;;;6.50;;
76852;SDS011;65825;52.232;10.566;2023-05-07T10:38:09;9.98;;;6.57;;
76852;SDS011;65825;52.232;10.566;2023-05-07T10:40:35;10.20;;;6.35;;
76852;SDS011;65825;52.232;10.566;2023-05-07T10:43:02;9.27;;;6.22;;
76852;SDS011;65825;52.232;10.566;2023-05-07T10:45:30;8.35;;;5.50;;
76852;SDS011;65825;52.232;10.566;2023-05-07T10:50:41;7.28;;;5.20;;
76852;SDS011;65825;52.232;10.566;2023-05-07T10:55:42;7.38;;;5.15;;
76852;SDS011;65825;52.232;10.566;2023-05-07T10:58:26;7.82;;;5.45;;
76852;SDS011;65825;52.232;10.566;2023-05-07T11:01:01;7.05;;;4.95;;
76852;SDS011;65825;52.232;10.566;2023-05-07T11:03:27;7.57;;;5.10;;
76852;SDS011;65825;52.232;10.566;2023-05-07T11:06:12;7.43;;;5.10;;
76852;SDS011;65825;52.232;10.566;2023-05-07T11:08:57;8.10;;;5.20;;
76852;SDS011;65825;52.232;10.566;2023-05-07T11:17:08;6.53;;;4.63;;
76852;SDS011;65825;52.232;10.566;2023-05-07T11:25:09;6.93;;;4.63;;
76852;SDS011;65825;52.232;10.566;2023-05-07T11:27:35;7.53;;;4.78;;
76852;SDS011;65825;52.232;10.566;2023-05-07T11:30:00;9.15;;;5.13;;
76852;SDS011;65825;52.232;10.566;2023-05-07T11:32:30;8.15;;;5.60;;
76852;SDS011;65825;52.232;10.566;2023-05-07T11:34:58;8.57;;;5.85;;
76852;SDS011;65825;52.232;10.566;2023-05-07T11:37:26;7.43;;;5.35;;
76852;SDS011;65825;52.232;10.566;2023-05-07T11:40:03;8.20;;;5.85;;
76852;SDS011;65825;52.232;10.566;2023-05-07T11:42:34;9.57;;;5.95;;
76852;SDS011;65825;52.232;10.566;2023-05-07T11:45:03;8.70;;;5.40;;
76852;SDS011;65825;52.232;10.566;2023-05-07T11:47:31;8.95;;;5.90;;
76852;SDS011;65825;52.232;10.566;2023-05-07T11:49:57;8.38;;;5.63;;
76852;SDS011;65825;52.232;10.566;2023-05-07T11:52:28;8.50;;;5.57;;
76852;SDS011;65825;52.232;10.566;2023-05-07T11:54:54;9.60;;;5.87;;
76852;SDS011;65825;52.232;10.566;2023-05-07T11:57:21;9.13;;;7.15;;
76852;SDS011;65825;52.232;10.566;2023-05-07T11:59:56;8.52;;;6.10;;
76852;SDS011;65825;52.232;10.566;2023-05-07T12:02:23;10.10;;;6.78;;
76852;SDS011;65825;52.232;10.566;2023-05-07T12:04:49;8.75;;;6.22;;
76852;SDS011;65825;52.232;10.566;2023-05-07T12:07:15;9.07;;;5.88;;
76852;SDS011;65825;52.232;10.566;2023-05-07T12:09:41;9.63;;;5.93;;
76852;SDS011;65825;52.232;10.566;2023-05-07T12:12:10;8.82;;;5.65;;
76852;SDS011;65825;52.232;10.566;2023-05-07T12:14:40;9.02;;;6.07;;
76852;SDS011;65825;52.232;10.566;2023-05-07T12:17:09;10.60;;;5.82;;
76852;SDS011;65825;52.232;10.566;2023-05-07T12:19:35;9.23;;;6.03;;
76852;SDS011;65825;52.232;10.566;2023-05-07T12:22:03;8.77;;;5.97;;
76852;SDS011;65825;52.232;10.566;2023-05-07T12:24:28;10.88;;;7.07;;
76852;SDS011;65825;52.232;10.566;2023-05-07T12:26:54;12.10;;;6.43;;
76852;SDS011;65825;52.232;10.566;2023-05-07T12:29:22;10.10;;;6.38;;
76852;SDS011;65825;52.232;10.566;2023-05-07T12:31:49;10.88;;;6.57;;
76852;SDS011;65825;52.232;10.566;2023-05-07T12:34:15;8.98;;;6.00;;
76852;SDS011;65825;52.232;10.566;2023-05-07T12:36:40;14.13;;;6.85;;
76852;SDS011;65825;52.232;10.566;2023-05-07T12:39:06;10.75;;;6.15;;
76852;SDS011;65825;52.232;10.566;2023-05-07T12:41:51;9.52;;;6.15;;
76852;SDS011;65825;52.232;10.566;2023-05-07T12:44:18;9.18;;;6.03;;
76852;SDS011;65825;52.232;10.566;2023-05-07T12:46:43;9.47;;;6.27;;
76852;SDS011;65825;52.232;10.566;2023-05-07T12:49:08;10.63;;;6.20;;
76852;SDS011;65825;52.232;10.566;2023-05-07T12:51:34;8.65;;;5.97;;
76852;SDS011;65825;52.232;10.566;2023-05-07T12:54:00;11.65;;;5.97;;
76852;SDS011;65825;52.232;10.566;2023-05-07T12:56:25;10.30;;;6.10;;
76852;SDS011;65825;52.232;10.566;2023-05-07T12:58:50;11.10;;;5.87;;
76852;SDS011;65825;52.232;10.566;2023-05-07T13:01:16;10.73;;;5.67;;
76852;SDS011;65825;52.232;10.566;2023-05-07T13:03:47;8.75;;;5.65;;
76852;SDS011;65825;52.232;10.566;2023-05-07T13:06:13;8.93;;;5.90;;
76852;SDS011;65825;52.232;10.566;2023-05-07T13:08:39;8.77;;;5.63;;
76852;SDS011;65825;52.232;10.566;2023-05-07T13:11:08;8.93;;;5.75;;
76852;SDS011;65825;52.232;10.566;2023-05-07T13:13:35;8.45;;;5.53;;
76852;SDS011;65825;52.232;10.566;2023-05-07T13:16:02;7.97;;;5.63;;
76852;SDS011;65825;52.232;10.566;2023-05-07T13:18:31;8.45;;;5.72;;
76852;SDS011;65825;52.232;10.566;2023-05-07T13:20:57;9.07;;;5.82;;
76852;SDS011;65825;52.232;10.566;2023-05-07T13:23:23;9.27;;;5.70;;
76852;SDS011;65825;52.232;10.566;2023-05-07T13:25:49;8.00;;;5.10;;
76852;SDS011;65825;52.232;10.566;2023-05-07T13:28:15;9.23;;;5.97;;
76852;SDS011;65825;52.232;10.566;2023-05-07T13:30:41;9.85;;;5.78;;
76852;SDS011;65825;52.232;10.566;2023-05-07T13:33:06;9.15;;;5.78;;
76852;SDS011;65825;52.232;10.566;2023-05-07T13:35:32;12.10;;;5.80;;
76852;SDS011;65825;52.232;10.566;2023-05-07T13:37:58;8.88;;;5.53;;
76852;SDS011;65825;52.232;10.566;2023-05-07T13:40:23;9.90;;;5.60;;
76852;SDS011;65825;52.232;10.566;2023-05-07T13:42:49;9.43;;;6.40;;
76852;SDS011;65825;52.232;10.566;2023-05-07T13:45:15;10.23;;;5.80;;
76852;SDS011;65825;52.232;10.566;2023-05-07T13:47:41;12.32;;;6.03;;
76852;SDS011;65825;52.232;10.566;2023-05-07T13:50:07;9.40;;;5.90;;
76852;SDS011;65825;52.232;10.566;2023-05-07T13:52:33;8.93;;;6.00;;
76852;SDS011;65825;52.232;10.566;2023-05-07T13:54:59;10.68;;;6.03;;
76852;SDS011;65825;52.232;10.566;2023-05-07T13:57:24;9.87;;;5.70;;
76852;SDS011;65825;52.232;10.566;2023-05-07T13:59:49;9.68;;;5.57;;
76852;SDS011;65825;52.232;10.566;2023-05-07T14:02:15;9.85;;;6.00;;
76852;SDS011;65825;52.232;10.566;2023-05-07T14:04:40;10.68;;;6.28;;
76852;SDS011;65825;52.232;10.566;2023-05-07T14:07:06;9.97;;;5.83;;
76852;SDS011;65825;52.232;10.566;2023-05-07T14:09:31;10.27;;;5.80;;
76852;SDS011;65825;52.232;10.566;2023-05-07T14:11:56;12.07;;;6.20;;
76852;SDS011;65825;52.232;10.566;2023-05-07T14:14:21;9.60;;;6.00;;
76852;SDS011;65825;52.232;10.566;2023-05-07T14:16:47;8.57;;;5.97;;
76852;SDS011;65825;52.232;10.566;2023-05-07T14:19:12;9.45;;;6.20;;
76852;SDS011;65825;52.232;10.566;2023-05-07T14:21:37;8.73;;;5.30;;
76852;SDS011;65825;52.232;10.566;2023-05-07T14:24:03;10.57;;;5.95;;
76852;SDS011;65825;52.232;10.566;2023-05-07T14:26:28;8.45;;;5.88;;
76852;SDS011;65825;52.232;10.566;2023-05-07T14:28:54;9.88;;;6.15;;
76852;SDS011;65825;52.232;10.566;2023-05-07T14:31:22;9.48;;;5.88;;
76852;SDS011;65825;52.232;10.566;2023-05-07T14:33:47;9.25;;;6.25;;
76852;SDS011;65825;52.232;10.566;2023-05-07T14:36:14;9.10;;;5.63;;
76852;SDS011;65825;52.232;10.566;2023-05-07T14:38:40;8.07;;;5.68;;
76852;SDS011;65825;52.232;10.566;2023-05-07T14:41:05;8.90;;;5.57;;
76852;SDS011;65825;52.232;10.566;2023-05-07T14:43:31;9.43;;;6.30;;
76852;SDS011;65825;52.232;10.566;2023-05-07T14:45:56;10.02;;;6.68;;
76852;SDS011;65825;52.232;10.566;2023-05-07T14:48:21;10.83;;;6.93;;
76852;SDS011;65825;52.232;10.566;2023-05-07T14:50:47;9.23;;;6.23;;